sensor_id;sensor_type;location;lat;lon;timestamp;temperature;humidity
39099;DHT22;24844;52.380;7.018;2022-12-07T00:02:21;6.40;99.90
39099;DHT22;24844;52.380;7.018;2022-12-07T00:04:48;6.40;99.90
39099;DHT22;24844;52.380;7.018;2022-12-07T00:07:14;6.60;99.90
39099;DHT22;24844;52.380;7.018;2022-12-07T00:09:39;6.50;99.90
39099;DHT22;24844;52.380;7.018;2022-12-07T00:12:06;6.40;99.90
39099;DHT22;24844;52.380;7.018;2022-12-07T00:14:32;6.30;99.90
39099;DHT22;24844;52.380;7.018;2022-12-07T00:16:57;6.20;99.90
39099;DHT22;24844;52.380;7.018;2022-12-07T00:19:23;6.30;99.90
39099;DHT22;24844;52.380;7.018;2022-12-07T00:21:48;6.20;99.90
39099;DHT22;24844;52.380;7.018;2022-12-07T00:24:14;5.90;99.90
39099;DHT22;24844;52.380;7.018;2022-12-07T00:26:40;5.90;99.90
39099;DHT22;24844;52.380;7.018;2022-12-07T00:29:07;5.90;99.90
39099;DHT22;24844;52.380;7.018;2022-12-07T00:31:33;5.80;99.90
39099;DHT22;24844;52.380;7.018;2022-12-07T00:34:00;5.80;99.90
39099;DHT22;24844;52.380;7.018;2022-12-07T00:36:26;5.70;99.90
39099;DHT22;24844;52.380;7.018;2022-12-07T00:38:51;5.70;99.90
39099;DHT22;24844;52.380;7.018;2022-12-07T00:41:18;5.70;99.90
39099;DHT22;24844;52.380;7.018;2022-12-07T00:43:44;5.60;99.90
39099;DHT22;24844;52.380;7.018;2022-12-07T00:46:10;5.40;99.90
39099;DHT22;24844;52.380;7.018;2022-12-07T00:48:35;5.30;99.90
39099;DHT22;24844;52.380;7.018;2022-12-07T00:51:01;5.20;99.90
39099;DHT22;24844;52.380;7.018;2022-12-07T00:53:27;5.20;99.90
39099;DHT22;24844;52.380;7.018;2022-12-07T00:55:52;5.10;99.90
39099;DHT22;24844;52.380;7.018;2022-12-07T00:58:18;5.30;99.90
39099;DHT22;24844;52.380;7.018;2022-12-07T01:00:44;5.30;99.90
39099;DHT22;24844;52.380;7.018;2022-12-07T01:03:10;5.10;99.90
39099;DHT22;24844;52.380;7.018;2022-12-07T01:05:36;5.10;99.90
39099;DHT22;24844;52.380;7.018;2022-12-07T01:08:02;5.00;99.90
39099;DHT22;24844;52.380;7.018;2022-12-07T01:10:27;5.00;99.90
39099;DHT22;24844;52.380;7.018;2022-12-07T01:12:53;4.90;99.90
39099;DHT22;24844;52.380;7.018;2022-12-07T01:15:19;5.00;99.90
39099;DHT22;24844;52.380;7.018;2022-12-07T01:17:44;5.00;99.90
39099;DHT22;24844;52.380;7.018;2022-12-07T01:20:10;4.90;99.90
39099;DHT22;24844;52.380;7.018;2022-12-07T01:22:37;4.90;99.90
39099;DHT22;24844;52.380;7.018;2022-12-07T01:25:03;4.90;99.90
39099;DHT22;24844;52.380;7.018;2022-12-07T01:27:28;4.80;99.90
39099;DHT22;24844;52.380;7.018;2022-12-07T01:29:54;4.70;99.90
39099;DHT22;24844;52.380;7.018;2022-12-07T01:32:19;4.70;99.90
39099;DHT22;24844;52.380;7.018;2022-12-07T01:34:47;4.70;99.90
39099;DHT22;24844;52.380;7.018;2022-12-07T01:37:13;4.70;99.90
39099;DHT22;24844;52.380;7.018;2022-12-07T01:39:38;4.70;99.90
39099;DHT22;24844;52.380;7.018;2022-12-07T01:42:04;4.50;99.90
39099;DHT22;24844;52.380;7.018;2022-12-07T01:44:30;4.60;99.90
39099;DHT22;24844;52.380;7.018;2022-12-07T01:46:57;4.50;99.90
39099;DHT22;24844;52.380;7.018;2022-12-07T01:49:42;4.50;99.90
39099;DHT22;24844;52.380;7.018;2022-12-07T01:52:12;4.50;99.90
39099;DHT22;24844;52.380;7.018;2022-12-07T01:54:38;4.50;99.90
39099;DHT22;24844;52.380;7.018;2022-12-07T01:57:04;4.40;99.90
39099;DHT22;24844;52.380;7.018;2022-12-07T01:59:31;4.40;99.90
39099;DHT22;24844;52.380;7.018;2022-12-07T02:01:57;4.50;99.90
39099;DHT22;24844;52.380;7.018;2022-12-07T02:04:23;4.40;99.90
39099;DHT22;24844;52.380;7.018;2022-12-07T02:06:48;4.40;99.90
39099;DHT22;24844;52.380;7.018;2022-12-07T02:09:15;4.40;99.90
39099;DHT22;24844;52.380;7.018;2022-12-07T02:11:40;4.30;99.90
39099;DHT22;24844;52.380;7.018;2022-12-07T02:14:06;4.40;99.90
39099;DHT22;24844;52.380;7.018;2022-12-07T02:21:56;4.40;99.90
39099;DHT22;24844;52.380;7.018;2022-12-07T02:25:07;4.40;99.90
39099;DHT22;24844;52.380;7.018;2022-12-07T02:30:00;4.50;99.90
39099;DHT22;24844;52.380;7.018;2022-12-07T02:32:28;4.60;99.90
39099;DHT22;24844;52.380;7.018;2022-12-07T02:35:11;4.60;99.90
39099;DHT22;24844;52.380;7.018;2022-12-07T02:42:32;4.70;99.90
39099;DHT22;24844;52.380;7.018;2022-12-07T02:44:59;4.70;99.90
39099;DHT22;24844;52.380;7.018;2022-12-07T02:47:25;4.80;99.90
39099;DHT22;24844;52.380;7.018;2022-12-07T02:49:51;4.80;99.90
39099;DHT22;24844;52.380;7.018;2022-12-07T02:52:17;4.90;99.90
39099;DHT22;24844;52.380;7.018;2022-12-07T02:54:43;4.90;99.90
39099;DHT22;24844;52.380;7.018;2022-12-07T02:57:14;4.90;99.90
39099;DHT22;24844;52.380;7.018;2022-12-07T03:10:07;5.00;99.90
39099;DHT22;24844;52.380;7.018;2022-12-07T03:12:36;4.90;99.90
39099;DHT22;24844;52.380;7.018;2022-12-07T03:15:14;4.80;99.90
39099;DHT22;24844;52.380;7.018;2022-12-07T03:17:41;4.90;99.90
39099;DHT22;24844;52.380;7.018;2022-12-07T03:20:09;4.80;99.90
39099;DHT22;24844;52.380;7.018;2022-12-07T03:22:36;4.80;99.90
39099;DHT22;24844;52.380;7.018;2022-12-07T03:25:05;4.80;99.90
39099;DHT22;24844;52.380;7.018;2022-12-07T03:27:33;4.70;99.90
39099;DHT22;24844;52.380;7.018;2022-12-07T03:30:00;4.60;99.90
39099;DHT22;24844;52.380;7.018;2022-12-07T03:34:57;4.50;99.90
39099;DHT22;24844;52.380;7.018;2022-12-07T03:42:36;4.40;99.90
39099;DHT22;24844;52.380;7.018;2022-12-07T03:45:03;4.30;99.90
39099;DHT22;24844;52.380;7.018;2022-12-07T03:47:31;4.10;99.90
39099;DHT22;24844;52.380;7.018;2022-12-07T03:50:06;4.10;99.90
39099;DHT22;24844;52.380;7.018;2022-12-07T03:52:37;4.10;99.90
39099;DHT22;24844;52.380;7.018;2022-12-07T03:57:29;4.10;99.90
39099;DHT22;24844;52.380;7.018;2022-12-07T03:59:56;4.10;99.90
39099;DHT22;24844;52.380;7.018;2022-12-07T04:02:22;4.00;99.90
39099;DHT22;24844;52.380;7.018;2022-12-07T04:04:48;4.10;99.90
39099;DHT22;24844;52.380;7.018;2022-12-07T04:07:14;4.10;99.90
39099;DHT22;24844;52.380;7.018;2022-12-07T04:09:39;4.20;99.90
39099;DHT22;24844;52.380;7.018;2022-12-07T04:12:05;4.20;99.90
39099;DHT22;24844;52.380;7.018;2022-12-07T04:14:30;4.20;99.90
39099;DHT22;24844;52.380;7.018;2022-12-07T04:16:57;4.30;99.90
39099;DHT22;24844;52.380;7.018;2022-12-07T04:19:23;4.30;99.90
39099;DHT22;24844;52.380;7.018;2022-12-07T04:21:49;4.40;99.90
39099;DHT22;24844;52.380;7.018;2022-12-07T04:24:15;4.50;99.90
39099;DHT22;24844;52.380;7.018;2022-12-07T04:26:41;4.60;99.90
39099;DHT22;24844;52.380;7.018;2022-12-07T04:29:07;4.60;99.90
39099;DHT22;24844;52.380;7.018;2022-12-07T04:31:32;4.80;99.90
39099;DHT22;24844;52.380;7.018;2022-12-07T04:33:57;4.90;99.90
39099;DHT22;24844;52.380;7.018;2022-12-07T04:36:23;4.90;99.90
39099;DHT22;24844;52.380;7.018;2022-12-07T04:38:48;4.90;99.90
39099;DHT22;24844;52.380;7.018;2022-12-07T04:41:14;4.80;99.90
39099;DHT22;24844;52.380;7.018;2022-12-07T04:43:39;4.90;99.90
39099;DHT22;24844;52.380;7.018;2022-12-07T04:46:05;4.90;99.90
39099;DHT22;24844;52.380;7.018;2022-12-07T04:48:31;4.90;99.90
39099;DHT22;24844;52.380;7.018;2022-12-07T04:50:56;4.90;99.90
39099;DHT22;24844;52.380;7.018;2022-12-07T04:53:22;5.20;99.90
39099;DHT22;24844;52.380;7.018;2022-12-07T04:55:47;5.30;99.90
39099;DHT22;24844;52.380;7.018;2022-12-07T04:58:13;5.10;99.90
39099;DHT22;24844;52.380;7.018;2022-12-07T05:00:39;5.00;99.90
39099;DHT22;24844;52.380;7.018;2022-12-07T05:03:04;5.00;99.90
39099;DHT22;24844;52.380;7.018;2022-12-07T05:05:30;5.00;99.90
39099;DHT22;24844;52.380;7.018;2022-12-07T05:07:55;5.10;99.90
39099;DHT22;24844;52.380;7.018;2022-12-07T05:10:21;4.90;99.90
39099;DHT22;24844;52.380;7.018;2022-12-07T05:12:46;4.80;99.90
39099;DHT22;24844;52.380;7.018;2022-12-07T05:15:13;4.80;99.90
39099;DHT22;24844;52.380;7.018;2022-12-07T05:17:38;4.70;99.90
39099;DHT22;24844;52.380;7.018;2022-12-07T05:20:04;4.60;99.90
39099;DHT22;24844;52.380;7.018;2022-12-07T05:22:30;4.50;99.90
39099;DHT22;24844;52.380;7.018;2022-12-07T05:24:55;4.40;99.90
39099;DHT22;24844;52.380;7.018;2022-12-07T05:27:21;4.40;99.90
39099;DHT22;24844;52.380;7.018;2022-12-07T05:29:46;4.40;99.90
39099;DHT22;24844;52.380;7.018;2022-12-07T05:32:12;4.30;99.90
39099;DHT22;24844;52.380;7.018;2022-12-07T05:34:37;4.30;99.90
39099;DHT22;24844;52.380;7.018;2022-12-07T05:37:03;4.30;99.90
39099;DHT22;24844;52.380;7.018;2022-12-07T05:39:28;4.20;99.90
39099;DHT22;24844;52.380;7.018;2022-12-07T05:41:54;4.20;99.90
39099;DHT22;24844;52.380;7.018;2022-12-07T05:44:38;4.20;99.90
39099;DHT22;24844;52.380;7.018;2022-12-07T05:47:04;4.10;99.90
39099;DHT22;24844;52.380;7.018;2022-12-07T05:49:29;4.00;99.90
39099;DHT22;24844;52.380;7.018;2022-12-07T05:51:55;4.00;99.90
39099;DHT22;24844;52.380;7.018;2022-12-07T05:54:20;3.90;99.90
39099;DHT22;24844;52.380;7.018;2022-12-07T05:56:46;4.10;99.90
39099;DHT22;24844;52.380;7.018;2022-12-07T05:59:11;4.10;99.90
39099;DHT22;24844;52.380;7.018;2022-12-07T06:02:11;4.00;99.90
39099;DHT22;24844;52.380;7.018;2022-12-07T06:04:38;4.00;99.90
39099;DHT22;24844;52.380;7.018;2022-12-07T06:07:04;4.10;99.90
39099;DHT22;24844;52.380;7.018;2022-12-07T06:09:30;4.10;99.90
39099;DHT22;24844;52.380;7.018;2022-12-07T06:11:56;4.20;99.90
39099;DHT22;24844;52.380;7.018;2022-12-07T06:14:40;4.20;99.90
39099;DHT22;24844;52.380;7.018;2022-12-07T06:17:06;4.30;99.90
39099;DHT22;24844;52.380;7.018;2022-12-07T06:19:31;4.40;99.90
39099;DHT22;24844;52.380;7.018;2022-12-07T06:21:57;4.40;99.90
39099;DHT22;24844;52.380;7.018;2022-12-07T06:24:22;4.50;99.90
39099;DHT22;24844;52.380;7.018;2022-12-07T06:26:48;4.50;99.90
39099;DHT22;24844;52.380;7.018;2022-12-07T06:29:14;4.50;99.90
39099;DHT22;24844;52.380;7.018;2022-12-07T06:31:39;4.50;99.90
39099;DHT22;24844;52.380;7.018;2022-12-07T06:34:06;4.50;99.90
39099;DHT22;24844;52.380;7.018;2022-12-07T06:36:32;4.40;99.90
39099;DHT22;24844;52.380;7.018;2022-12-07T06:38:58;4.40;99.90
39099;DHT22;24844;52.380;7.018;2022-12-07T06:41:23;4.30;99.90
39099;DHT22;24844;52.380;7.018;2022-12-07T06:43:49;4.20;99.90
39099;DHT22;24844;52.380;7.018;2022-12-07T06:46:15;4.30;99.90
39099;DHT22;24844;52.380;7.018;2022-12-07T06:48:41;4.30;99.90
39099;DHT22;24844;52.380;7.018;2022-12-07T06:51:06;4.40;99.90
39099;DHT22;24844;52.380;7.018;2022-12-07T06:53:32;4.30;99.90
39099;DHT22;24844;52.380;7.018;2022-12-07T06:55:57;4.30;99.90
39099;DHT22;24844;52.380;7.018;2022-12-07T06:58:23;4.20;99.90
39099;DHT22;24844;52.380;7.018;2022-12-07T07:00:48;4.20;99.90
39099;DHT22;24844;52.380;7.018;2022-12-07T07:03:15;4.30;99.90
39099;DHT22;24844;52.380;7.018;2022-12-07T07:05:41;4.40;99.90
39099;DHT22;24844;52.380;7.018;2022-12-07T07:08:07;4.40;99.90
39099;DHT22;24844;52.380;7.018;2022-12-07T07:10:33;4.20;99.90
39099;DHT22;24844;52.380;7.018;2022-12-07T07:12:59;4.20;99.90
39099;DHT22;24844;52.380;7.018;2022-12-07T07:15:24;4.10;99.90
39099;DHT22;24844;52.380;7.018;2022-12-07T07:17:50;4.20;99.90
39099;DHT22;24844;52.380;7.018;2022-12-07T07:20:15;4.20;99.90
39099;DHT22;24844;52.380;7.018;2022-12-07T07:22:41;4.20;99.90
39099;DHT22;24844;52.380;7.018;2022-12-07T07:25:06;4.20;99.90
39099;DHT22;24844;52.380;7.018;2022-12-07T07:27:32;4.10;99.90
39099;DHT22;24844;52.380;7.018;2022-12-07T07:29:57;3.90;99.90
39099;DHT22;24844;52.380;7.018;2022-12-07T07:32:23;3.90;99.90
39099;DHT22;24844;52.380;7.018;2022-12-07T07:34:48;3.80;99.90
39099;DHT22;24844;52.380;7.018;2022-12-07T07:37:14;3.90;99.90
39099;DHT22;24844;52.380;7.018;2022-12-07T07:39:39;4.00;99.90
39099;DHT22;24844;52.380;7.018;2022-12-07T07:42:05;4.00;99.90
39099;DHT22;24844;52.380;7.018;2022-12-07T07:44:30;4.00;99.90
39099;DHT22;24844;52.380;7.018;2022-12-07T07:46:56;4.10;99.90
39099;DHT22;24844;52.380;7.018;2022-12-07T07:49:21;4.10;99.90
39099;DHT22;24844;52.380;7.018;2022-12-07T07:51:47;4.20;99.90
39099;DHT22;24844;52.380;7.018;2022-12-07T07:54:12;4.20;99.90
39099;DHT22;24844;52.380;7.018;2022-12-07T07:56:38;4.40;99.90
39099;DHT22;24844;52.380;7.018;2022-12-07T07:59:03;4.50;99.90
39099;DHT22;24844;52.380;7.018;2022-12-07T08:01:28;4.60;99.90
39099;DHT22;24844;52.380;7.018;2022-12-07T08:03:54;4.60;99.90
39099;DHT22;24844;52.380;7.018;2022-12-07T08:06:19;4.70;99.90
39099;DHT22;24844;52.380;7.018;2022-12-07T08:08:45;4.80;99.90
39099;DHT22;24844;52.380;7.018;2022-12-07T08:11:10;4.80;99.90
39099;DHT22;24844;52.380;7.018;2022-12-07T08:13:36;4.80;99.90
39099;DHT22;24844;52.380;7.018;2022-12-07T08:16:05;4.90;99.90
39099;DHT22;24844;52.380;7.018;2022-12-07T08:18:31;4.80;99.90
39099;DHT22;24844;52.380;7.018;2022-12-07T08:21:00;4.80;99.90
39099;DHT22;24844;52.380;7.018;2022-12-07T08:23:28;4.90;99.90
39099;DHT22;24844;52.380;7.018;2022-12-07T08:25:53;4.80;99.90
39099;DHT22;24844;52.380;7.018;2022-12-07T08:28:19;4.90;99.90
39099;DHT22;24844;52.380;7.018;2022-12-07T08:30:44;5.30;99.90
39099;DHT22;24844;52.380;7.018;2022-12-07T08:33:10;5.90;99.90
39099;DHT22;24844;52.380;7.018;2022-12-07T08:35:36;6.20;99.90
39099;DHT22;24844;52.380;7.018;2022-12-07T08:38:01;6.20;99.90
39099;DHT22;24844;52.380;7.018;2022-12-07T08:40:27;6.20;99.90
39099;DHT22;24844;52.380;7.018;2022-12-07T08:42:53;6.00;99.90
39099;DHT22;24844;52.380;7.018;2022-12-07T08:45:19;6.20;99.90
39099;DHT22;24844;52.380;7.018;2022-12-07T08:47:49;6.00;99.90
39099;DHT22;24844;52.380;7.018;2022-12-07T08:50:16;6.00;99.90
39099;DHT22;24844;52.380;7.018;2022-12-07T08:52:42;5.80;99.90
39099;DHT22;24844;52.380;7.018;2022-12-07T08:55:09;5.80;99.90
39099;DHT22;24844;52.380;7.018;2022-12-07T08:57:35;5.70;99.90
39099;DHT22;24844;52.380;7.018;2022-12-07T09:00:01;5.60;99.90
39099;DHT22;24844;52.380;7.018;2022-12-07T09:02:27;5.60;99.90
39099;DHT22;24844;52.380;7.018;2022-12-07T09:04:53;5.70;99.90
39099;DHT22;24844;52.380;7.018;2022-12-07T09:07:18;5.80;99.90
39099;DHT22;24844;52.380;7.018;2022-12-07T09:09:44;5.90;99.90
39099;DHT22;24844;52.380;7.018;2022-12-07T09:12:09;5.90;99.90
39099;DHT22;24844;52.380;7.018;2022-12-07T09:14:35;6.10;99.90
39099;DHT22;24844;52.380;7.018;2022-12-07T09:17:19;6.20;99.90
39099;DHT22;24844;52.380;7.018;2022-12-07T09:19:44;6.20;99.90
39099;DHT22;24844;52.380;7.018;2022-12-07T09:22:10;6.40;99.90
39099;DHT22;24844;52.380;7.018;2022-12-07T09:24:36;6.40;99.90
39099;DHT22;24844;52.380;7.018;2022-12-07T09:27:01;6.50;99.90
39099;DHT22;24844;52.380;7.018;2022-12-07T09:29:26;6.60;99.90
39099;DHT22;24844;52.380;7.018;2022-12-07T09:31:52;6.70;99.90
39099;DHT22;24844;52.380;7.018;2022-12-07T09:34:18;6.60;99.90
39099;DHT22;24844;52.380;7.018;2022-12-07T09:36:43;6.50;99.90
39099;DHT22;24844;52.380;7.018;2022-12-07T09:39:09;6.40;99.90
39099;DHT22;24844;52.380;7.018;2022-12-07T09:41:38;6.50;99.90
39099;DHT22;24844;52.380;7.018;2022-12-07T09:44:06;6.40;99.90
39099;DHT22;24844;52.380;7.018;2022-12-07T09:46:34;6.50;99.90
39099;DHT22;24844;52.380;7.018;2022-12-07T09:49:00;6.50;99.90
39099;DHT22;24844;52.380;7.018;2022-12-07T09:51:26;6.50;99.90
39099;DHT22;24844;52.380;7.018;2022-12-07T09:53:53;6.70;99.90
39099;DHT22;24844;52.380;7.018;2022-12-07T09:56:19;6.80;99.90
39099;DHT22;24844;52.380;7.018;2022-12-07T09:58:45;6.90;99.90
39099;DHT22;24844;52.380;7.018;2022-12-07T10:03:40;7.20;99.90
39099;DHT22;24844;52.380;7.018;2022-12-07T10:06:05;7.40;99.90
39099;DHT22;24844;52.380;7.018;2022-12-07T10:08:31;7.60;99.90
39099;DHT22;24844;52.380;7.018;2022-12-07T10:10:57;7.80;99.90
39099;DHT22;24844;52.380;7.018;2022-12-07T10:14:10;8.10;99.90
39099;DHT22;24844;52.380;7.018;2022-12-07T10:18:51;8.80;99.90
39099;DHT22;24844;52.380;7.018;2022-12-07T10:21:19;9.30;99.90
39099;DHT22;24844;52.380;7.018;2022-12-07T10:24:03;10.00;99.90
39099;DHT22;24844;52.380;7.018;2022-12-07T10:28:55;11.90;99.90
39099;DHT22;24844;52.380;7.018;2022-12-07T10:31:22;12.80;99.90
39099;DHT22;24844;52.380;7.018;2022-12-07T10:33:52;13.60;99.90
39099;DHT22;24844;52.380;7.018;2022-12-07T10:38:45;14.80;99.90
39099;DHT22;24844;52.380;7.018;2022-12-07T10:41:10;14.40;99.90
39099;DHT22;24844;52.380;7.018;2022-12-07T10:43:36;12.90;99.90
39099;DHT22;24844;52.380;7.018;2022-12-07T10:51:20;13.00;99.90
39099;DHT22;24844;52.380;7.018;2022-12-07T10:53:52;13.70;99.90
39099;DHT22;24844;52.380;7.018;2022-12-07T11:01:57;15.20;99.90
39099;DHT22;24844;52.380;7.018;2022-12-07T11:11:42;16.60;94.80
39099;DHT22;24844;52.380;7.018;2022-12-07T11:14:14;16.90;95.90
39099;DHT22;24844;52.380;7.018;2022-12-07T11:19:28;14.50;99.90
39099;DHT22;24844;52.380;7.018;2022-12-07T11:21:59;13.90;99.90
39099;DHT22;24844;52.380;7.018;2022-12-07T11:29:46;12.50;99.90
39099;DHT22;24844;52.380;7.018;2022-12-07T11:37:33;11.40;99.90
39099;DHT22;24844;52.380;7.018;2022-12-07T11:40:03;11.40;99.90
39099;DHT22;24844;52.380;7.018;2022-12-07T11:42:30;11.30;99.90
39099;DHT22;24844;52.380;7.018;2022-12-07T11:45:02;11.10;99.90
39099;DHT22;24844;52.380;7.018;2022-12-07T11:47:40;11.30;99.90
39099;DHT22;24844;52.380;7.018;2022-12-07T11:55:29;10.50;99.90
39099;DHT22;24844;52.380;7.018;2022-12-07T11:58:03;10.00;99.90
39099;DHT22;24844;52.380;7.018;2022-12-07T12:00:29;9.50;99.90
39099;DHT22;24844;52.380;7.018;2022-12-07T12:03:09;8.90;99.90
39099;DHT22;24844;52.380;7.018;2022-12-07T12:05:36;9.30;99.90
39099;DHT22;24844;52.380;7.018;2022-12-07T12:08:14;9.50;99.90
39099;DHT22;24844;52.380;7.018;2022-12-07T12:20:51;9.00;99.90
39099;DHT22;24844;52.380;7.018;2022-12-07T12:23:20;9.00;99.90
39099;DHT22;24844;52.380;7.018;2022-12-07T12:25:47;9.10;99.90
39099;DHT22;24844;52.380;7.018;2022-12-07T12:28:29;9.00;99.90
39099;DHT22;24844;52.380;7.018;2022-12-07T12:33:46;8.70;99.90
39099;DHT22;24844;52.380;7.018;2022-12-07T12:41:50;8.70;99.90
39099;DHT22;24844;52.380;7.018;2022-12-07T12:43:58;8.80;99.90
39099;DHT22;24844;52.380;7.018;2022-12-07T12:51:40;8.60;99.90
39099;DHT22;24844;52.380;7.018;2022-12-07T12:54:10;8.50;99.90
39099;DHT22;24844;52.380;7.018;2022-12-07T13:02:15;8.20;99.90
39099;DHT22;24844;52.380;7.018;2022-12-07T13:04:49;8.20;99.90
39099;DHT22;24844;52.380;7.018;2022-12-07T13:10:24;7.90;99.90
39099;DHT22;24844;52.380;7.018;2022-12-07T13:15:35;7.90;99.90
39099;DHT22;24844;52.380;7.018;2022-12-07T13:18:03;7.80;99.90
39099;DHT22;24844;52.380;7.018;2022-12-07T13:23:10;8.10;99.90
39099;DHT22;24844;52.380;7.018;2022-12-07T13:25:36;8.20;99.90
39099;DHT22;24844;52.380;7.018;2022-12-07T13:28:16;8.10;99.90
39099;DHT22;24844;52.380;7.018;2022-12-07T13:33:28;8.30;99.90
39099;DHT22;24844;52.380;7.018;2022-12-07T13:35:54;8.20;99.90
39099;DHT22;24844;52.380;7.018;2022-12-07T13:41:03;8.30;99.90
39099;DHT22;24844;52.380;7.018;2022-12-07T13:43:28;8.10;99.90
39099;DHT22;24844;52.380;7.018;2022-12-07T13:45:57;8.20;99.90
39099;DHT22;24844;52.380;7.018;2022-12-07T13:51:16;8.30;99.90
39099;DHT22;24844;52.380;7.018;2022-12-07T13:53:53;8.60;99.90
39099;DHT22;24844;52.380;7.018;2022-12-07T13:56:20;8.70;99.90
39099;DHT22;24844;52.380;7.018;2022-12-07T13:58:46;8.50;99.90
39099;DHT22;24844;52.380;7.018;2022-12-07T14:01:11;8.50;99.90
39099;DHT22;24844;52.380;7.018;2022-12-07T14:03:38;8.50;99.90
39099;DHT22;24844;52.380;7.018;2022-12-07T14:08:32;8.20;99.90
39099;DHT22;24844;52.380;7.018;2022-12-07T14:10:58;7.90;99.90
39099;DHT22;24844;52.380;7.018;2022-12-07T14:15:55;7.90;99.90
39099;DHT22;24844;52.380;7.018;2022-12-07T14:18:56;7.70;99.90
39099;DHT22;24844;52.380;7.018;2022-12-07T14:21:15;7.80;99.90
39099;DHT22;24844;52.380;7.018;2022-12-07T14:23:41;7.80;99.90
39099;DHT22;24844;52.380;7.018;2022-12-07T14:28:33;7.30;99.90
39099;DHT22;24844;52.380;7.018;2022-12-07T14:30:59;7.40;99.90
39099;DHT22;24844;52.380;7.018;2022-12-07T14:33:25;7.40;99.90
39099;DHT22;24844;52.380;7.018;2022-12-07T14:35:51;7.30;99.90
39099;DHT22;24844;52.380;7.018;2022-12-07T14:38:20;7.40;99.90
39099;DHT22;24844;52.380;7.018;2022-12-07T14:40:46;7.50;99.90
39099;DHT22;24844;52.380;7.018;2022-12-07T14:43:12;7.30;99.90
39099;DHT22;24844;52.380;7.018;2022-12-07T14:45:38;7.30;99.90
39099;DHT22;24844;52.380;7.018;2022-12-07T14:48:05;7.40;99.90
39099;DHT22;24844;52.380;7.018;2022-12-07T14:50:30;7.40;99.90
39099;DHT22;24844;52.380;7.018;2022-12-07T14:53:01;7.40;99.90
39099;DHT22;24844;52.380;7.018;2022-12-07T14:55:28;7.30;99.90
39099;DHT22;24844;52.380;7.018;2022-12-07T14:57:55;7.20;99.90
39099;DHT22;24844;52.380;7.018;2022-12-07T15:00:21;7.20;99.90
39099;DHT22;24844;52.380;7.018;2022-12-07T15:02:47;7.00;99.90
39099;DHT22;24844;52.380;7.018;2022-12-07T15:05:13;7.00;99.90
39099;DHT22;24844;52.380;7.018;2022-12-07T15:07:39;7.00;99.90
39099;DHT22;24844;52.380;7.018;2022-12-07T15:10:05;6.90;99.90
39099;DHT22;24844;52.380;7.018;2022-12-07T15:12:31;6.90;99.90
39099;DHT22;24844;52.380;7.018;2022-12-07T15:14:56;6.80;99.90
39099;DHT22;24844;52.380;7.018;2022-12-07T15:17:22;6.80;99.90
39099;DHT22;24844;52.380;7.018;2022-12-07T15:19:47;6.80;99.90
39099;DHT22;24844;52.380;7.018;2022-12-07T15:22:13;6.80;99.90
39099;DHT22;24844;52.380;7.018;2022-12-07T15:24:38;6.70;99.90
39099;DHT22;24844;52.380;7.018;2022-12-07T15:27:04;6.70;99.90
39099;DHT22;24844;52.380;7.018;2022-12-07T15:29:29;6.80;99.90
39099;DHT22;24844;52.380;7.018;2022-12-07T15:31:55;6.80;99.90
39099;DHT22;24844;52.380;7.018;2022-12-07T15:34:20;6.90;99.90
39099;DHT22;24844;52.380;7.018;2022-12-07T15:36:46;6.70;99.90
39099;DHT22;24844;52.380;7.018;2022-12-07T15:39:11;6.70;99.90
39099;DHT22;24844;52.380;7.018;2022-12-07T15:41:37;6.60;99.90
39099;DHT22;24844;52.380;7.018;2022-12-07T15:44:02;6.60;99.90
39099;DHT22;24844;52.380;7.018;2022-12-07T15:46:46;6.60;99.90
39099;DHT22;24844;52.380;7.018;2022-12-07T15:49:13;6.50;99.90
39099;DHT22;24844;52.380;7.018;2022-12-07T15:51:39;6.60;99.90
39099;DHT22;24844;52.380;7.018;2022-12-07T15:54:04;6.50;99.90
39099;DHT22;24844;52.380;7.018;2022-12-07T15:56:29;6.40;99.90
39099;DHT22;24844;52.380;7.018;2022-12-07T15:58:56;6.50;99.90
39099;DHT22;24844;52.380;7.018;2022-12-07T16:01:21;6.40;99.90
39099;DHT22;24844;52.380;7.018;2022-12-07T16:03:46;6.40;99.90
39099;DHT22;24844;52.380;7.018;2022-12-07T16:06:14;6.60;99.90
39099;DHT22;24844;52.380;7.018;2022-12-07T16:08:43;7.30;99.90
39099;DHT22;24844;52.380;7.018;2022-12-07T16:11:09;7.70;99.90
39099;DHT22;24844;52.380;7.018;2022-12-07T16:13:35;8.10;99.90
39099;DHT22;24844;52.380;7.018;2022-12-07T16:16:04;8.40;99.90
39099;DHT22;24844;52.380;7.018;2022-12-07T16:18:30;8.60;99.90
39099;DHT22;24844;52.380;7.018;2022-12-07T16:20:56;8.60;99.90
39099;DHT22;24844;52.380;7.018;2022-12-07T16:23:21;8.60;99.90
39099;DHT22;24844;52.380;7.018;2022-12-07T16:25:46;8.80;99.90
39099;DHT22;24844;52.380;7.018;2022-12-07T16:28:12;8.80;99.90
39099;DHT22;24844;52.380;7.018;2022-12-07T16:30:37;8.60;99.90
39099;DHT22;24844;52.380;7.018;2022-12-07T16:33:03;8.30;99.90
39099;DHT22;24844;52.380;7.018;2022-12-07T16:35:28;7.80;99.90
39099;DHT22;24844;52.380;7.018;2022-12-07T16:37:54;7.60;99.90
39099;DHT22;24844;52.380;7.018;2022-12-07T16:40:19;7.40;99.90
39099;DHT22;24844;52.380;7.018;2022-12-07T16:42:45;7.20;99.90
39099;DHT22;24844;52.380;7.018;2022-12-07T16:45:10;7.10;99.90
39099;DHT22;24844;52.380;7.018;2022-12-07T16:47:39;7.20;99.90
39099;DHT22;24844;52.380;7.018;2022-12-07T16:50:05;7.10;99.90
39099;DHT22;24844;52.380;7.018;2022-12-07T16:52:31;6.70;99.90
39099;DHT22;24844;52.380;7.018;2022-12-07T16:54:56;6.60;99.90
39099;DHT22;24844;52.380;7.018;2022-12-07T16:57:22;6.50;99.90
39099;DHT22;24844;52.380;7.018;2022-12-07T16:59:47;6.60;99.90
39099;DHT22;24844;52.380;7.018;2022-12-07T17:02:12;6.50;99.90
39099;DHT22;24844;52.380;7.018;2022-12-07T17:04:38;6.50;99.90
39099;DHT22;24844;52.380;7.018;2022-12-07T17:07:05;6.40;99.90
39099;DHT22;24844;52.380;7.018;2022-12-07T17:09:31;6.60;99.90
39099;DHT22;24844;52.380;7.018;2022-12-07T17:11:56;6.50;99.90
39099;DHT22;24844;52.380;7.018;2022-12-07T17:14:22;6.40;99.90
39099;DHT22;24844;52.380;7.018;2022-12-07T17:17:06;6.50;99.90
39099;DHT22;24844;52.380;7.018;2022-12-07T17:19:31;6.50;99.90
39099;DHT22;24844;52.380;7.018;2022-12-07T17:21:57;6.60;99.90
39099;DHT22;24844;52.380;7.018;2022-12-07T17:24:22;6.60;99.90
39099;DHT22;24844;52.380;7.018;2022-12-07T17:26:48;6.60;99.90
39099;DHT22;24844;52.380;7.018;2022-12-07T17:29:14;6.60;99.90
39099;DHT22;24844;52.380;7.018;2022-12-07T17:31:40;6.60;99.90
39099;DHT22;24844;52.380;7.018;2022-12-07T17:34:13;6.50;99.90
39099;DHT22;24844;52.380;7.018;2022-12-07T17:36:39;6.50;99.90
39099;DHT22;24844;52.380;7.018;2022-12-07T17:39:08;6.50;99.90
39099;DHT22;24844;52.380;7.018;2022-12-07T17:41:34;6.40;99.90
39099;DHT22;24844;52.380;7.018;2022-12-07T17:44:19;6.50;99.90
39099;DHT22;24844;52.380;7.018;2022-12-07T17:46:46;6.30;99.90
39099;DHT22;24844;52.380;7.018;2022-12-07T17:49:12;6.30;99.90
39099;DHT22;24844;52.380;7.018;2022-12-07T17:51:37;6.30;99.90
39099;DHT22;24844;52.380;7.018;2022-12-07T17:54:21;6.30;99.90
39099;DHT22;24844;52.380;7.018;2022-12-07T17:56:47;6.30;99.90
39099;DHT22;24844;52.380;7.018;2022-12-07T17:59:13;6.30;99.90